Time;durP1;ratioP1;P1;durP2;ratioP2;P2;SDS_P1;SDS_P2;PMS_P1;PMS_P2;Temp;Humidity;BMP_temperature;BMP_pressure;BME280_temperature;BME280_humidity;BME280_pressure;Samples;Min_cycle;Max_cycle;Signal;HPM_P1;HPM_P2
2021/03/08 00:05:05;;;;;;;4.20;3.80;;;;;;;;;;4871976;28;20069;-55
2021/03/08 00:07:31;;;;;;;5.65;4.55;;;;;;;;;;4178854;34;20102;-57
2021/03/08 00:09:56;;;;;;;6.60;4.60;;;;;;;;;;4178725;34;20113;-56
2021/03/08 00:12:22;;;;;;;5.22;4.40;;;;;;;;;;4178887;34;20107;-60
2021/03/08 00:14:48;;;;;;;4.43;3.80;;;;;;;;;;4178761;34;20129;-58
2021/03/08 00:17:16;;;;;;;5.20;4.62;;;;;;;;;;4178776;34;20141;-59
2021/03/08 00:19:42;;;;;;;5.72;4.57;;;;;;;;;;4178715;34;20451;-60
2021/03/08 00:22:08;;;;;;;5.15;4.65;;;;;;;;;;4178764;34;20089;-60
2021/03/08 00:24:34;;;;;;;5.65;4.22;;;;;;;;;;4178655;34;20270;-59
2021/03/08 00:27:00;;;;;;;4.25;3.83;;;;;;;;;;4178679;34;20544;-59
2021/03/08 00:29:26;;;;;;;8.23;4.78;;;;;;;;;;4178634;34;20122;-59
2021/03/08 00:31:51;;;;;;;5.43;4.60;;;;;;;;;;4178670;34;20102;-59
2021/03/08 00:34:17;;;;;;;4.93;4.40;;;;;;;;;;4178576;34;20478;-59
2021/03/08 00:36:43;;;;;;;5.20;4.37;;;;;;;;;;4178752;34;20106;-59
2021/03/08 00:39:09;;;;;;;6.37;4.87;;;;;;;;;;4178879;34;20262;-59
2021/03/08 00:41:35;;;;;;;5.45;4.40;;;;;;;;;;4178498;34;20110;-59
2021/03/08 00:44:01;;;;;;;5.05;4.55;;;;;;;;;;4178510;34;20614;-59
2021/03/08 00:46:26;;;;;;;5.37;4.45;;;;;;;;;;4178535;34;20195;-59
2021/03/08 00:48:52;;;;;;;5.50;4.62;;;;;;;;;;4178452;34;20553;-59
2021/03/08 00:51:19;;;;;;;7.00;4.78;;;;;;;;;;4178479;34;20199;-60
2021/03/08 00:53:44;;;;;;;6.72;4.82;;;;;;;;;;4178543;34;20629;-59
2021/03/08 00:56:10;;;;;;;6.50;4.62;;;;;;;;;;4178679;34;20188;-60
2021/03/08 00:58:36;;;;;;;5.32;4.57;;;;;;;;;;4178388;34;20173;-59
2021/03/08 01:01:02;;;;;;;5.28;4.78;;;;;;;;;;4178121;34;20129;-59
2021/03/08 01:03:28;;;;;;;5.68;4.43;;;;;;;;;;4178413;34;20113;-59
2021/03/08 01:05:54;;;;;;;6.90;4.97;;;;;;;;;;4178074;34;20127;-59
2021/03/08 01:08:20;;;;;;;5.75;4.15;;;;;;;;;;4178411;34;20271;-59
2021/03/08 01:10:46;;;;;;;5.68;4.72;;;;;;;;;;4178159;34;20142;-59
2021/03/08 01:13:12;;;;;;;6.00;4.60;;;;;;;;;;4178538;34;20134;-59
2021/03/08 01:15:37;;;;;;;5.25;4.30;;;;;;;;;;4178290;34;20144;-59
2021/03/08 01:18:03;;;;;;;4.90;4.25;;;;;;;;;;4178200;34;20181;-59
2021/03/08 01:20:29;;;;;;;5.30;4.57;;;;;;;;;;4178240;34;20114;-59
2021/03/08 01:22:55;;;;;;;4.93;4.18;;;;;;;;;;4178428;34;20614;-59
2021/03/08 01:25:22;;;;;;;5.78;4.78;;;;;;;;;;4178333;34;20114;-59
2021/03/08 01:27:48;;;;;;;6.12;4.65;;;;;;;;;;4178223;34;20210;-60
2021/03/08 01:30:23;;;;;;;6.15;4.68;;;;;;;;;;4178086;34;20125;-59
2021/03/08 01:32:48;;;;;;;4.95;4.32;;;;;;;;;;4178291;34;20136;-60
2021/03/08 01:35:15;;;;;;;7.68;4.57;;;;;;;;;;4177986;34;20141;-59
2021/03/08 01:37:41;;;;;;;5.18;4.40;;;;;;;;;;4178075;34;20097;-59
2021/03/08 01:40:08;;;;;;;5.43;4.90;;;;;;;;;;4178027;34;20626;-59
2021/03/08 01:42:34;;;;;;;5.50;4.47;;;;;;;;;;4178288;34;20121;-59
2021/03/08 01:45:00;;;;;;;5.53;4.62;;;;;;;;;;4177831;34;20118;-60
2021/03/08 01:47:26;;;;;;;5.47;4.18;;;;;;;;;;4178208;34;20132;-59
2021/03/08 01:49:51;;;;;;;4.90;4.40;;;;;;;;;;4177810;34;20145;-59
2021/03/08 01:52:17;;;;;;;4.70;4.07;;;;;;;;;;4165232;34;20217;-59
2021/03/08 01:54:43;;;;;;;5.45;4.03;;;;;;;;;;4177884;34;20126;-59
2021/03/08 01:57:09;;;;;;;6.07;4.00;;;;;;;;;;4177821;34;20206;-59
2021/03/08 01:59:35;;;;;;;4.85;4.20;;;;;;;;;;4165190;34;20106;-59
2021/03/08 02:02:01;;;;;;;5.28;4.78;;;;;;;;;;4177937;34;20229;-59
2021/03/08 02:04:27;;;;;;;6.22;4.82;;;;;;;;;;4177834;34;20550;-58
2021/03/08 02:06:53;;;;;;;7.18;4.75;;;;;;;;;;4177747;34;20130;-59
2021/03/08 02:09:19;;;;;;;5.32;4.70;;;;;;;;;;4177851;34;20141;-58
2021/03/08 02:11:50;;;;;;;5.32;4.25;;;;;;;;;;4177073;34;20533;-58
2021/03/08 02:14:31;;;;;;;5.65;4.70;;;;;;;;;;4165418;34;20532;-58
2021/03/08 02:17:05;;;;;;;7.25;4.78;;;;;;;;;;4165029;34;20568;-59
2021/03/08 02:19:59;;;;;;;5.10;4.60;;;;;;;;;;4165033;34;20137;-58
2021/03/08 02:22:39;;;;;;;4.97;4.50;;;;;;;;;;4177858;34;20451;-59
2021/03/08 02:25:36;;;;;;;6.47;4.78;;;;;;;;;;4177670;34;20529;-59
2021/03/08 02:28:11;;;;;;;5.95;4.90;;;;;;;;;;4177993;34;20146;-59
2021/03/08 02:30:50;;;;;;;6.70;4.87;;;;;;;;;;4164958;34;20116;-59
2021/03/08 02:33:29;;;;;;;6.32;5.28;;;;;;;;;;4165700;34;20201;-59
2021/03/08 02:35:57;;;;;;;5.22;4.72;;;;;;;;;;4165043;34;20098;-59
2021/03/08 02:38:32;;;;;;;5.47;4.57;;;;;;;;;;4153736;34;20471;-59
2021/03/08 02:41:04;;;;;;;7.03;5.43;;;;;;;;;;4165791;34;20106;-59
2021/03/08 02:43:37;;;;;;;7.35;5.30;;;;;;;;;;4177835;34;20111;-59
2021/03/08 02:46:05;;;;;;;6.60;5.25;;;;;;;;;;4177530;34;20122;-59
2021/03/08 02:48:32;;;;;;;6.05;5.22;;;;;;;;;;4164900;34;20183;-59
2021/03/08 02:50:58;;;;;;;5.30;4.80;;;;;;;;;;4164735;34;20132;-59
2021/03/08 02:53:24;;;;;;;6.60;5.28;;;;;;;;;;4164769;34;20130;-59
2021/03/08 02:55:53;;;;;;;6.22;5.40;;;;;;;;;;4164646;34;20218;-59
2021/03/08 02:58:19;;;;;;;6.15;5.28;;;;;;;;;;4176083;34;20202;-58
2021/03/08 03:00:47;;;;;;;5.53;5.03;;;;;;;;;;4164557;34;20234;-59
2021/03/08 03:03:13;;;;;;;6.10;5.07;;;;;;;;;;4164913;34;20157;-59
2021/03/08 03:05:39;;;;;;;7.22;6.45;;;;;;;;;;4164361;34;20110;-58
2021/03/08 03:08:07;;;;;;;6.82;5.20;;;;;;;;;;4164819;34;20109;-58
2021/03/08 03:10:33;;;;;;;6.87;5.43;;;;;;;;;;4164589;34;20559;-60
2021/03/08 03:12:59;;;;;;;9.18;5.20;;;;;;;;;;4153780;34;20130;-59
2021/03/08 03:15:25;;;;;;;6.12;5.40;;;;;;;;;;4164411;34;20627;-59
2021/03/08 03:17:51;;;;;;;15.73;5.75;;;;;;;;;;4164503;34;20129;-59
2021/03/08 03:20:17;;;;;;;6.07;5.47;;;;;;;;;;4177113;34;20129;-59
2021/03/08 03:22:44;;;;;;;7.40;5.68;;;;;;;;;;4164387;34;20141;-59
2021/03/08 03:25:12;;;;;;;6.03;5.07;;;;;;;;;;4177056;34;20137;-59
2021/03/08 03:27:38;;;;;;;6.95;5.40;;;;;;;;;;4153532;34;20108;-59
2021/03/08 03:30:06;;;;;;;7.22;5.60;;;;;;;;;;4164334;34;20456;-59
2021/03/08 03:32:32;;;;;;;5.75;4.97;;;;;;;;;;4153219;34;20142;-59
2021/03/08 03:34:58;;;;;;;6.22;5.18;;;;;;;;;;4164524;34;20613;-59
2021/03/08 03:37:25;;;;;;;7.70;5.62;;;;;;;;;;4164397;34;20498;-58
2021/03/08 03:39:51;;;;;;;5.80;5.05;;;;;;;;;;4164597;34;20448;-59
2021/03/08 03:42:17;;;;;;;6.57;5.37;;;;;;;;;;4177132;34;20109;-59
2021/03/08 03:44:43;;;;;;;8.27;6.18;;;;;;;;;;4176897;34;20118;-59
2021/03/08 03:47:13;;;;;;;7.35;5.43;;;;;;;;;;4164265;34;20112;-59
2021/03/08 03:49:38;;;;;;;6.72;5.55;;;;;;;;;;4176911;34;20245;-59
2021/03/08 03:52:05;;;;;;;8.32;5.68;;;;;;;;;;4177053;34;20133;-59
2021/03/08 03:54:31;;;;;;;7.00;5.28;;;;;;;;;;4177078;34;20497;-60
2021/03/08 03:56:59;;;;;;;6.12;5.53;;;;;;;;;;4164085;34;20114;-59
2021/03/08 03:59:46;;;;;;;7.68;5.57;;;;;;;;;;4164205;34;20095;-58
2021/03/08 04:02:15;;;;;;;6.22;5.32;;;;;;;;;;4176895;34;20195;-58
2021/03/08 04:04:52;;;;;;;7.70;5.68;;;;;;;;;;4176897;34;20182;-59
2021/03/08 04:07:18;;;;;;;6.50;5.62;;;;;;;;;;4164378;34;20206;-58
2021/03/08 04:09:49;;;;;;;5.70;5.15;;;;;;;;;;4152788;34;20783;-58
2021/03/08 04:12:17;;;;;;;6.53;5.32;;;;;;;;;;4164309;34;20125;-58
2021/03/08 04:14:42;;;;;;;6.65;5.45;;;;;;;;;;4164162;34;20186;-59
2021/03/08 04:17:08;;;;;;;6.47;5.47;;;;;;;;;;4163931;34;20129;-60
2021/03/08 04:19:34;;;;;;;8.98;5.87;;;;;;;;;;4163903;34;20260;-60
2021/03/08 04:22:02;;;;;;;6.20;5.43;;;;;;;;;;4152738;34;20486;-60
2021/03/08 04:24:28;;;;;;;5.85;5.30;;;;;;;;;;4176561;34;20480;-59
2021/03/08 04:26:54;;;;;;;5.82;5.22;;;;;;;;;;4176540;34;20126;-59
2021/03/08 04:29:20;;;;;;;6.82;5.35;;;;;;;;;;4163661;34;20611;-59
2021/03/08 04:31:46;;;;;;;5.65;5.07;;;;;;;;;;4163606;34;20599;-59
2021/03/08 04:34:12;;;;;;;5.28;4.50;;;;;;;;;;4164093;34;20455;-59
2021/03/08 04:36:38;;;;;;;10.27;5.22;;;;;;;;;;4154470;34;20234;-59
2021/03/08 04:39:04;;;;;;;6.70;4.55;;;;;;;;;;4165909;34;20495;-59
2021/03/08 04:41:30;;;;;;;5.40;4.47;;;;;;;;;;4178753;34;20129;-59
2021/03/08 04:43:56;;;;;;;5.82;4.30;;;;;;;;;;4165721;34;20546;-59
2021/03/08 04:46:23;;;;;;;6.47;4.18;;;;;;;;;;4166091;34;20249;-59
2021/03/08 04:48:48;;;;;;;4.30;3.87;;;;;;;;;;4178572;34;20128;-59
2021/03/08 04:51:14;;;;;;;4.53;4.10;;;;;;;;;;4165970;34;20130;-59
2021/03/08 04:53:40;;;;;;;4.50;3.53;;;;;;;;;;4165856;34;20471;-60
2021/03/08 04:56:06;;;;;;;4.97;4.10;;;;;;;;;;4165573;34;20414;-59
2021/03/08 04:58:32;;;;;;;3.70;3.22;;;;;;;;;;4154592;34;20526;-59
2021/03/08 05:00:58;;;;;;;4.10;3.58;;;;;;;;;;4178302;34;20107;-59
2021/03/08 05:03:24;;;;;;;4.65;3.90;;;;;;;;;;4178360;34;20107;-59
2021/03/08 05:05:50;;;;;;;4.05;3.60;;;;;;;;;;4165446;34;20153;-59
2021/03/08 05:08:16;;;;;;;4.28;3.70;;;;;;;;;;4178619;34;20117;-59
2021/03/08 05:10:42;;;;;;;5.20;3.55;;;;;;;;;;4165537;34;20470;-59
2021/03/08 05:13:10;;;;;;;4.53;3.30;;;;;;;;;;4178293;34;20130;-58
2021/03/08 05:15:35;;;;;;;3.97;3.00;;;;;;;;;;4165445;34;20116;-59
2021/03/08 05:18:02;;;;;;;3.67;3.20;;;;;;;;;;4154312;34;20190;-59
2021/03/08 05:20:28;;;;;;;4.62;2.97;;;;;;;;;;4165708;34;20121;-59
2021/03/08 05:22:56;;;;;;;2.78;2.50;;;;;;;;;;4165846;34;20110;-59
2021/03/08 05:25:22;;;;;;;2.78;2.42;;;;;;;;;;4165466;34;20185;-60
2021/03/08 05:27:48;;;;;;;3.03;2.35;;;;;;;;;;4176857;34;20111;-59
2021/03/08 05:30:18;;;;;;;2.62;1.80;;;;;;;;;;4178129;34;20130;-59
2021/03/08 05:33:08;;;;;;;2.20;1.60;;;;;;;;;;4165619;34;20098;-59
2021/03/08 05:35:34;;;;;;;1.70;1.50;;;;;;;;;;4178259;34;20106;-59
2021/03/08 05:38:00;;;;;;;3.00;1.87;;;;;;;;;;4165606;34;20098;-59
2021/03/08 05:40:28;;;;;;;1.73;1.45;;;;;;;;;;4165337;34;20134;-59
2021/03/08 05:42:59;;;;;;;1.40;1.30;;;;;;;;;;4178156;34;20129;-59
2021/03/08 05:45:26;;;;;;;1.75;1.40;;;;;;;;;;4177658;34;20098;-59
2021/03/08 05:48:33;;;;;;;2.35;1.52;;;;;;;;;;4165094;34;20130;-59
2021/03/08 05:51:09;;;;;;;2.15;1.27;;;;;;;;;;4165336;34;20451;-58
2021/03/08 05:53:53;;;;;;;1.37;1.27;;;;;;;;;;4178064;34;20197;-58
2021/03/08 05:56:56;;;;;;;3.72;1.58;;;;;;;;;;4177871;34;20115;-58
2021/03/08 05:59:34;;;;;;;3.65;1.40;;;;;;;;;;4165498;34;20432;-58
2021/03/08 06:02:05;;;;;;;1.65;1.30;;;;;;;;;;4177790;34;20223;-58
2021/03/08 06:04:53;;;;;;;1.45;1.35;;;;;;;;;;4177851;34;20129;-59
2021/03/08 06:07:31;;;;;;;1.90;1.50;;;;;;;;;;4178034;34;20528;-59
2021/03/08 06:10:07;;;;;;;1.50;1.40;;;;;;;;;;4178072;34;20217;-59
2021/03/08 06:12:37;;;;;;;;;;;;;;;;;;4177892;34;20214;-59
2021/03/08 06:15:10;;;;;;;1.70;1.58;;;;;;;;;;4177576;34;20362;-59
2021/03/08 06:17:37;;;;;;;1.77;1.67;;;;;;;;;;4177647;34;20110;-59
2021/03/08 06:20:04;;;;;;;2.87;1.42;;;;;;;;;;4177649;34;20563;-59
2021/03/08 06:22:29;;;;;;;2.33;1.25;;;;;;;;;;4177741;34;20122;-59
2021/03/08 06:24:55;;;;;;;1.37;1.20;;;;;;;;;;4177887;34;20526;-59
2021/03/08 06:27:21;;;;;;;1.90;1.50;;;;;;;;;;4165116;34;20588;-59
2021/03/08 06:29:47;;;;;;;1.10;1.10;;;;;;;;;;4177870;34;20109;-59
2021/03/08 06:32:20;;;;;;;1.65;1.40;;;;;;;;;;4154024;34;20566;-59
2021/03/08 06:34:46;;;;;;;1.60;1.30;;;;;;;;;;4177608;34;20672;-58
2021/03/08 06:37:13;;;;;;;2.05;1.42;;;;;;;;;;4177816;34;20169;-59
2021/03/08 06:39:43;;;;;;;1.67;1.37;;;;;;;;;;4177569;34;20246;-59
2021/03/08 06:42:10;;;;;;;1.65;1.35;;;;;;;;;;4177530;34;20098;-59
2021/03/08 06:44:36;;;;;;;2.15;1.52;;;;;;;;;;4177558;34;20199;-59
2021/03/08 06:47:04;;;;;;;1.58;1.48;;;;;;;;;;4177461;34;20122;-59
2021/03/08 06:49:31;;;;;;;1.80;1.30;;;;;;;;;;4177694;34;20134;-59
2021/03/08 06:52:07;;;;;;;1.77;1.50;;;;;;;;;;4164819;34;20105;-59
2021/03/08 06:54:34;;;;;;;1.73;1.37;;;;;;;;;;4177347;34;20110;-60
2021/03/08 06:57:00;;;;;;;2.00;1.50;;;;;;;;;;4164332;34;20198;-59
2021/03/08 06:59:26;;;;;;;1.30;1.20;;;;;;;;;;4177418;34;20138;-59
2021/03/08 07:01:52;;;;;;;1.55;1.20;;;;;;;;;;4177436;34;20736;-59
2021/03/08 07:04:23;;;;;;;1.45;1.35;;;;;;;;;;4177311;34;20213;-59
2021/03/08 07:07:04;;;;;;;1.50;1.40;;;;;;;;;;4177156;34;20126;-59
2021/03/08 07:09:31;;;;;;;2.10;1.60;;;;;;;;;;4177682;34;20210;-58
2021/03/08 07:12:13;;;;;;;2.10;1.30;;;;;;;;;;4177202;34;20114;-59
2021/03/08 07:14:40;;;;;;;1.58;1.33;;;;;;;;;;4177230;34;20213;-60
2021/03/08 07:17:35;;;;;;;1.50;1.40;;;;;;;;;;4177148;34;20186;-60
2021/03/08 07:20:06;;;;;;;2.00;1.37;;;;;;;;;;4177159;34;20095;-59
2021/03/08 07:22:48;;;;;;;2.42;1.45;;;;;;;;;;4177172;34;20133;-59
2021/03/08 07:25:16;;;;;;;1.62;1.40;;;;;;;;;;4177202;34;20114;-59
2021/03/08 07:27:55;;;;;;;2.75;1.40;;;;;;;;;;4177048;34;20115;-59
2021/03/08 07:30:25;;;;;;;1.95;1.40;;;;;;;;;;4176999;34;20114;-59
2021/03/08 07:33:16;;;;;;;3.30;1.60;;;;;;;;;;4177279;34;20126;-59
2021/03/08 07:35:43;;;;;;;1.50;1.30;;;;;;;;;;4176892;34;20134;-59
2021/03/08 07:38:28;;;;;;;3.03;1.58;;;;;;;;;;4177148;34;20118;-59
2021/03/08 07:41:08;;;;;;;1.80;1.40;;;;;;;;;;4177057;34;20118;-59
2021/03/08 07:43:34;;;;;;;2.75;2.20;;;;;;;;;;4176957;34;20429;-59
2021/03/08 07:46:00;;;;;;;2.78;1.48;;;;;;;;;;4176982;34;20201;-59
2021/03/08 07:48:26;;;;;;;2.25;1.60;;;;;;;;;;4164265;34;20199;-59
2021/03/08 07:50:52;;;;;;;3.05;1.90;;;;;;;;;;4176777;34;20131;-59
2021/03/08 07:53:25;;;;;;;2.20;1.45;;;;;;;;;;4176786;34;20106;-59
2021/03/08 07:55:53;;;;;;;2.53;1.67;;;;;;;;;;4176915;34;20415;-60
2021/03/08 07:58:18;;;;;;;1.75;1.42;;;;;;;;;;4176851;34;20519;-60
2021/03/08 08:00:44;;;;;;;2.33;1.50;;;;;;;;;;4163844;34;20117;-60
2021/03/08 08:03:10;;;;;;;2.58;1.60;;;;;;;;;;4164011;34;20606;-59
2021/03/08 08:05:36;;;;;;;1.42;1.20;;;;;;;;;;4176430;34;20126;-60
2021/03/08 08:08:02;;;;;;;5.30;1.65;;;;;;;;;;4176629;34;20138;-60
2021/03/08 08:10:28;;;;;;;1.92;1.48;;;;;;;;;;4154198;34;20238;-58
2021/03/08 08:12:58;;;;;;;1.77;1.60;;;;;;;;;;4178758;34;20125;-58
2021/03/08 08:15:27;;;;;;;2.45;1.55;;;;;;;;;;4166602;34;20122;-57
2021/03/08 08:17:54;;;;;;;2.20;1.65;;;;;;;;;;4165979;34;20283;-57
2021/03/08 08:20:20;;;;;;;3.75;1.65;;;;;;;;;;4178887;34;20103;-57
2021/03/08 08:22:53;;;;;;;1.52;1.40;;;;;;;;;;4165977;34;20142;-60
2021/03/08 08:25:19;;;;;;;1.77;1.40;;;;;;;;;;4166030;34;20134;-60
2021/03/08 08:27:47;;;;;;;2.58;1.95;;;;;;;;;;4154646;34;20527;-57
2021/03/08 08:30:13;;;;;;;2.25;1.67;;;;;;;;;;4165770;34;20519;-57
2021/03/08 08:32:58;;;;;;;1.70;1.50;;;;;;;;;;4166158;34;20110;-58
2021/03/08 08:35:26;;;;;;;1.65;1.40;;;;;;;;;;4178534;34;20544;-58
2021/03/08 08:38:07;;;;;;;2.08;1.60;;;;;;;;;;4178507;34;20125;-58
2021/03/08 08:40:37;;;;;;;2.55;1.50;;;;;;;;;;4178294;34;20101;-58
2021/03/08 08:43:15;;;;;;;1.60;1.37;;;;;;;;;;4178509;34;20129;-59
2021/03/08 08:45:45;;;;;;;1.65;1.37;;;;;;;;;;4178650;34;20115;-58
2021/03/08 08:48:11;;;;;;;1.90;1.40;;;;;;;;;;4178605;34;20123;-58
2021/03/08 08:50:45;;;;;;;1.55;1.40;;;;;;;;;;4178609;34;20142;-57
2021/03/08 08:53:11;;;;;;;1.83;1.42;;;;;;;;;;4178497;34;20159;-57
2021/03/08 08:55:37;;;;;;;2.03;1.42;;;;;;;;;;4165853;34;20140;-57
2021/03/08 08:58:25;;;;;;;2.15;1.35;;;;;;;;;;4178352;34;20439;-59
2021/03/08 09:01:10;;;;;;;2.65;1.65;;;;;;;;;;4178342;34;20146;-60
2021/03/08 09:04:01;;;;;;;1.95;1.40;;;;;;;;;;4178358;34;20122;-59
2021/03/08 09:06:46;;;;;;;1.33;1.10;;;;;;;;;;4178396;34;20183;-56
2021/03/08 09:09:14;;;;;;;2.00;1.27;;;;;;;;;;4178330;34;20459;-57
2021/03/08 09:12:07;;;;;;;1.85;1.25;;;;;;;;;;4178183;34;20527;-57
2021/03/08 09:14:49;;;;;;;2.15;1.50;;;;;;;;;;4178030;34;20198;-58
2021/03/08 09:17:17;;;;;;;1.70;1.00;;;;;;;;;;4178290;34;20189;-57
2021/03/08 09:19:47;;;;;;;3.05;1.50;;;;;;;;;;4178071;34;20119;-57
2021/03/08 09:22:22;;;;;;;1.55;1.15;;;;;;;;;;4165911;34;20452;-59
2021/03/08 09:25:09;;;;;;;1.95;1.37;;;;;;;;;;4178025;34;20199;-58
2021/03/08 09:27:38;;;;;;;2.33;1.30;;;;;;;;;;4178202;34;20138;-57
2021/03/08 09:30:14;;;;;;;2.17;1.50;;;;;;;;;;4178235;34;20117;-57
2021/03/08 09:32:52;;;;;;;2.12;1.00;;;;;;;;;;4178363;34;20114;-57
2021/03/08 09:35:20;;;;;;;2.35;1.30;;;;;;;;;;4178399;34;20099;-60
2021/03/08 09:37:48;;;;;;;2.08;1.17;;;;;;;;;;4178323;34;20494;-59
2021/03/08 09:40:18;;;;;;;2.33;1.90;;;;;;;;;;4178155;34;20133;-58
2021/03/08 09:42:44;;;;;;;2.83;1.52;;;;;;;;;;4178126;34;20130;-57
2021/03/08 09:45:13;;;;;;;2.17;1.52;;;;;;;;;;4177973;34;20133;-57
2021/03/08 09:47:40;;;;;;;1.30;1.20;;;;;;;;;;4177962;34;20218;-57
2021/03/08 09:50:06;;;;;;;3.35;2.20;;;;;;;;;;4177811;34;20103;-57
2021/03/08 09:52:37;;;;;;;3.53;1.45;;;;;;;;;;4177937;34;20118;-59
2021/03/08 09:55:08;;;;;;;2.90;1.70;;;;;;;;;;4177948;34;20207;-60
2021/03/08 09:57:38;;;;;;;2.12;1.67;;;;;;;;;;4177832;34;20194;-59
2021/03/08 10:00:06;;;;;;;3.15;1.80;;;;;;;;;;4177848;34;20133;-60
2021/03/08 10:02:32;;;;;;;3.37;1.50;;;;;;;;;;4177961;34;20519;-57
2021/03/08 10:04:58;;;;;;;2.85;1.27;;;;;;;;;;4177676;34;20118;-60
2021/03/08 10:07:24;;;;;;;2.72;1.67;;;;;;;;;;4177931;34;20530;-59
2021/03/08 10:10:10;;;;;;;2.25;1.65;;;;;;;;;;4177719;34;20142;-59
2021/03/08 10:12:36;;;;;;;2.05;1.30;;;;;;;;;;4167297;34;20122;-60
2021/03/08 10:15:03;;;;;;;1.75;1.65;;;;;;;;;;4177579;34;20129;-58
2021/03/08 10:17:30;;;;;;;2.67;1.48;;;;;;;;;;4177715;34;20522;-60
2021/03/08 10:19:56;;;;;;;1.77;1.30;;;;;;;;;;4164945;34;20106;-60
2021/03/08 10:22:39;;;;;;;1.60;1.37;;;;;;;;;;4177770;34;20138;-60
2021/03/08 10:25:37;;;;;;;3.65;1.60;;;;;;;;;;4177779;34;20135;-58
2021/03/08 10:28:04;;;;;;;2.37;1.45;;;;;;;;;;4161784;34;20138;-58
2021/03/08 10:30:31;;;;;;;5.78;3.62;;;;;;;;;;4177482;34;20118;-58
2021/03/08 10:33:02;;;;;;;3.45;2.20;;;;;;;;;;4176987;34;20126;-58
2021/03/08 10:35:33;;;;;;;2.72;1.80;;;;;;;;;;4177576;34;20115;-58
2021/03/08 10:38:00;;;;;;;2.22;1.50;;;;;;;;;;4165149;34;20129;-58
2021/03/08 10:40:25;;;;;;;2.92;2.03;;;;;;;;;;4164597;34;20217;-58
2021/03/08 10:42:51;;;;;;;2.37;1.40;;;;;;;;;;4177637;34;20153;-59
2021/03/08 10:45:17;;;;;;;11.05;2.35;;;;;;;;;;4164943;34;20126;-57
2021/03/08 10:47:43;;;;;;;2.37;1.50;;;;;;;;;;4164833;34;20237;-57
2021/03/08 10:50:09;;;;;;;2.47;1.50;;;;;;;;;;4177471;34;20589;-58
2021/03/08 10:52:35;;;;;;;1.95;1.60;;;;;;;;;;4177508;34;20128;-58
2021/03/08 10:55:01;;;;;;;3.20;1.23;;;;;;;;;;4164691;34;20626;-58
2021/03/08 10:57:27;;;;;;;1.33;1.23;;;;;;;;;;4177556;34;20114;-58
2021/03/08 10:59:57;;;;;;;2.35;1.77;;;;;;;;;;4164573;34;20191;-58
2021/03/08 11:02:23;;;;;;;1.70;1.40;;;;;;;;;;4177436;34;20126;-58
2021/03/08 11:05:10;;;;;;;4.25;1.40;;;;;;;;;;4177178;34;20129;-57
2021/03/08 11:07:36;;;;;;;2.20;1.55;;;;;;;;;;4177329;34;20209;-57
2021/03/08 11:10:03;;;;;;;1.85;1.35;;;;;;;;;;4177368;34;20193;-57
2021/03/08 11:12:29;;;;;;;1.37;1.15;;;;;;;;;;4177237;34;20094;-58
2021/03/08 11:14:56;;;;;;;1.48;1.30;;;;;;;;;;4177328;34;20216;-57
2021/03/08 11:17:34;;;;;;;2.35;1.15;;;;;;;;;;4177084;34;20133;-58
2021/03/08 11:20:27;;;;;;;3.15;1.33;;;;;;;;;;4176966;34;20126;-58
2021/03/08 11:23:11;;;;;;;1.70;1.20;;;;;;;;;;4172701;34;20146;-57
2021/03/08 11:25:40;;;;;;;1.45;1.10;;;;;;;;;;4177032;34;20546;-57
2021/03/08 11:28:08;;;;;;;1.30;1.20;;;;;;;;;;4177108;34;20546;-57
2021/03/08 11:30:34;;;;;;;1.83;1.50;;;;;;;;;;4177140;34;20114;-58
2021/03/08 11:33:00;;;;;;;2.50;1.55;;;;;;;;;;4177134;34;20210;-58
2021/03/08 11:35:32;;;;;;;2.10;1.60;;;;;;;;;;4177001;34;20137;-58
2021/03/08 11:38:06;;;;;;;2.47;2.10;;;;;;;;;;4176992;34;20095;-58
2021/03/08 11:40:32;;;;;;;2.03;1.20;;;;;;;;;;4177040;34;20463;-57
2021/03/08 11:42:58;;;;;;;2.08;1.40;;;;;;;;;;4177155;34;20516;-57
2021/03/08 11:45:24;;;;;;;1.77;1.30;;;;;;;;;;4176860;34;20121;-58
2021/03/08 11:47:51;;;;;;;2.95;1.83;;;;;;;;;;4177130;34;20427;-58
2021/03/08 11:50:17;;;;;;;1.55;1.45;;;;;;;;;;4176914;34;20138;-57
2021/03/08 11:52:43;;;;;;;2.10;1.90;;;;;;;;;;4176873;34;20274;-57
2021/03/08 11:55:10;;;;;;;2.17;1.98;;;;;;;;;;4176987;34;20124;-58
2021/03/08 11:57:36;;;;;;;2.20;1.90;;;;;;;;;;4176769;34;20129;-57
2021/03/08 12:00:06;;;;;;;2.10;1.92;;;;;;;;;;4176795;34;20205;-57
2021/03/08 12:02:32;;;;;;;2.60;2.17;;;;;;;;;;4176746;34;20230;-57
2021/03/08 12:04:57;;;;;;;3.95;2.30;;;;;;;;;;4176396;34;20479;-57
2021/03/08 12:07:23;;;;;;;9.57;2.00;;;;;;;;;;4176814;34;20119;-58
2021/03/08 12:09:49;;;;;;;2.80;2.10;;;;;;;;;;4176734;34;20553;-58
2021/03/08 12:12:15;;;;;;;2.60;1.80;;;;;;;;;;4176718;34;20127;-57
2021/03/08 12:14:41;;;;;;;5.18;1.80;;;;;;;;;;4176542;34;20126;-58
2021/03/08 12:17:07;;;;;;;1.90;1.75;;;;;;;;;;4176493;34;20148;-58
2021/03/08 12:19:33;;;;;;;1.50;1.40;;;;;;;;;;4176481;34;20148;-58
2021/03/08 12:21:59;;;;;;;1.40;1.30;;;;;;;;;;4176514;34;20098;-57
2021/03/08 12:24:25;;;;;;;6.53;1.70;;;;;;;;;;4164125;34;20534;-57
2021/03/08 12:26:51;;;;;;;1.98;1.37;;;;;;;;;;4176419;34;20626;-59
2021/03/08 12:29:16;;;;;;;2.90;1.95;;;;;;;;;;4176732;34;20130;-58
2021/03/08 12:31:42;;;;;;;2.85;2.22;;;;;;;;;;4175895;34;20523;-58
2021/03/08 12:34:08;;;;;;;3.33;2.15;;;;;;;;;;4178667;34;20228;-59
2021/03/08 12:36:34;;;;;;;4.20;1.60;;;;;;;;;;4189672;34;20527;-59
2021/03/08 12:39:00;;;;;;;3.22;1.50;;;;;;;;;;4189948;34;20102;-59
2021/03/08 12:41:26;;;;;;;3.72;2.35;;;;;;;;;;4189946;34;20111;-60
2021/03/08 12:43:52;;;;;;;2.12;1.80;;;;;;;;;;4189995;34;20121;-62
2021/03/08 12:46:19;;;;;;;2.17;1.50;;;;;;;;;;4189974;34;20106;-59
2021/03/08 12:48:45;;;;;;;2.65;1.58;;;;;;;;;;4189911;34;20138;-59
2021/03/08 12:51:11;;;;;;;4.70;2.50;;;;;;;;;;4189842;34;20121;-59
2021/03/08 12:53:37;;;;;;;4.60;3.58;;;;;;;;;;4189983;34;20098;-58
2021/03/08 12:56:03;;;;;;;6.47;2.92;;;;;;;;;;4190770;34;20116;-59
2021/03/08 12:58:29;;;;;;;3.42;2.78;;;;;;;;;;4191918;34;20107;-59
2021/03/08 13:00:55;;;;;;;2.53;1.60;;;;;;;;;;4191821;34;20112;-59
2021/03/08 13:03:21;;;;;;;1.30;1.20;;;;;;;;;;4192223;34;20435;-59
2021/03/08 13:05:46;;;;;;;4.12;1.87;;;;;;;;;;4191599;34;20549;-58
2021/03/08 13:08:12;;;;;;;3.08;2.00;;;;;;;;;;4191875;34;20110;-59
2021/03/08 13:10:38;;;;;;;1.58;1.48;;;;;;;;;;4191760;34;20583;-60
2021/03/08 13:13:04;;;;;;;2.62;2.20;;;;;;;;;;4191979;34;20514;-59
2021/03/08 13:15:30;;;;;;;3.08;2.22;;;;;;;;;;4191858;34;20098;-57
2021/03/08 13:17:56;;;;;;;3.03;1.67;;;;;;;;;;4191864;34;20117;-59
2021/03/08 13:20:22;;;;;;;2.35;1.40;;;;;;;;;;4191790;34;20114;-59
2021/03/08 13:22:48;;;;;;;4.03;2.17;;;;;;;;;;4191936;34;20106;-60
2021/03/08 13:25:14;;;;;;;2.28;1.30;;;;;;;;;;4191716;34;20514;-59
2021/03/08 13:27:40;;;;;;;2.60;1.50;;;;;;;;;;4191908;34;20447;-59
2021/03/08 13:30:10;;;;;;;4.65;1.50;;;;;;;;;;4191762;34;20130;-59
2021/03/08 13:32:36;;;;;;;2.80;1.58;;;;;;;;;;4191803;34;20646;-58
2021/03/08 13:35:03;;;;;;;3.40;1.55;;;;;;;;;;4191674;34;20510;-58
2021/03/08 13:37:30;;;;;;;1.65;1.30;;;;;;;;;;4191773;34;20110;-63
2021/03/08 13:39:56;;;;;;;2.08;1.55;;;;;;;;;;4191635;34;20466;-61
2021/03/08 13:42:23;;;;;;;2.12;1.17;;;;;;;;;;4191975;34;20129;-63
2021/03/08 13:44:49;;;;;;;1.95;1.40;;;;;;;;;;4178751;34;20253;-62
2021/03/08 13:47:15;;;;;;;6.57;5.07;;;;;;;;;;4191757;34;20110;-62
2021/03/08 13:49:41;;;;;;;3.60;3.15;;;;;;;;;;4191684;34;20147;-64
2021/03/08 13:52:07;;;;;;;4.03;2.67;;;;;;;;;;4191487;34;20526;-63
2021/03/08 13:54:32;;;;;;;2.37;1.90;;;;;;;;;;4191469;34;20525;-64
2021/03/08 13:56:58;;;;;;;3.40;2.08;;;;;;;;;;4191372;34;20114;-59
2021/03/08 13:59:24;;;;;;;3.05;2.00;;;;;;;;;;4191410;34;20221;-61
2021/03/08 14:01:50;;;;;;;2.67;2.10;;;;;;;;;;4191626;34;20134;-60
2021/03/08 14:04:17;;;;;;;1.50;1.30;;;;;;;;;;4191735;34;20531;-61
2021/03/08 14:06:43;;;;;;;1.75;1.20;;;;;;;;;;4190703;34;20141;-61
2021/03/08 14:09:08;;;;;;;2.15;1.45;;;;;;;;;;4191247;34;20138;-60
2021/03/08 14:11:34;;;;;;;3.62;2.95;;;;;;;;;;4191371;34;20138;-62
2021/03/08 14:14:01;;;;;;;2.12;1.40;;;;;;;;;;4191567;34;20410;-63
2021/03/08 14:16:27;;;;;;;4.28;1.75;;;;;;;;;;4191206;34;20533;-62
2021/03/08 14:18:53;;;;;;;1.67;1.17;;;;;;;;;;4191330;34;20129;-61
2021/03/08 14:21:20;;;;;;;1.65;1.33;;;;;;;;;;4191313;34;20107;-58
2021/03/08 14:23:47;;;;;;;1.60;1.23;;;;;;;;;;4191445;34;20479;-59
2021/03/08 14:26:14;;;;;;;2.33;1.75;;;;;;;;;;4191235;34;20106;-60
2021/03/08 14:28:40;;;;;;;1.83;1.52;;;;;;;;;;4191625;34;20220;-62
2021/03/08 14:31:06;;;;;;;1.27;1.02;;;;;;;;;;4191152;34;20124;-59
2021/03/08 14:33:32;;;;;;;2.08;1.25;;;;;;;;;;4191313;34;20459;-59
2021/03/08 14:35:58;;;;;;;1.25;1.10;;;;;;;;;;4191091;34;20134;-59
2021/03/08 14:38:24;;;;;;;2.75;1.33;;;;;;;;;;4191155;34;20526;-58
2021/03/08 14:40:49;;;;;;;1.75;1.37;;;;;;;;;;4191060;34;20125;-59
2021/03/08 14:43:15;;;;;;;1.33;1.20;;;;;;;;;;4189878;34;20154;-58
2021/03/08 14:45:41;;;;;;;2.55;1.70;;;;;;;;;;4189099;34;20274;-59
2021/03/08 14:48:07;;;;;;;2.12;1.50;;;;;;;;;;4190944;34;20128;-58
2021/03/08 14:50:33;;;;;;;1.67;1.35;;;;;;;;;;4191093;34;20106;-63
2021/03/08 14:52:59;;;;;;;1.45;1.30;;;;;;;;;;4191115;34;20118;-64
2021/03/08 14:55:25;;;;;;;1.45;1.30;;;;;;;;;;4191026;34;20152;-67
2021/03/08 14:57:51;;;;;;;2.42;1.37;;;;;;;;;;4189552;34;20134;-66